AXB1890 VOMM-VOMD
Flight info
| Callsign | AXB1890 |
|---|---|
| Flight time | 0h 46m |
| Altitude | 32000 |
| Route | TEGUT2B TEGUT R457 TTR V45 DOVOS |
| Aircraft | B738/M-SDE2E3FGHIRWXY/LB1 |
Departure
| Time | 2026-04-23 08:04 |
|---|---|
| Airport | Chennai International Airport (VOMM) |
Arrival
| Time | 2026-04-23 08:51 |
|---|---|
| Airport | Madurai Airport (VOMD) |
| Time | Latitude | Longitude | Altitude | Speed | Heading |
|---|---|---|---|---|---|
| 2026-04-23 07:10 | 12.98586 | 80.16567 | 47 ft | 0 kts | 340° |
| 2026-04-23 07:50 | 12.98584 | 80.16568 | 47 ft | 1 kts | 341° |
| 2026-04-23 07:50 | 12.98570 | 80.16573 | 47 ft | 2 kts | 340° |
| 2026-04-23 07:50 | 12.98556 | 80.16578 | 48 ft | 2 kts | 349° |
| 2026-04-23 07:50 | 12.98541 | 80.16578 | 48 ft | 2 kts | 12° |
| 2026-04-23 07:51 | 12.98527 | 80.16573 | 48 ft | 2 kts | 32° |
| 2026-04-23 07:51 | 12.98515 | 80.16562 | 48 ft | 2 kts | 52° |
| 2026-04-23 07:51 | 12.98509 | 80.16554 | 48 ft | 0 kts | 65° |
| 2026-04-23 07:51 | 12.98507 | 80.16547 | 49 ft | 0 kts | 68° |
| 2026-04-23 07:56 | 12.98507 | 80.16548 | 48 ft | 0 kts | 68° |
| 2026-04-23 07:56 | 12.98516 | 80.16568 | 48 ft | 7 kts | 66° |
| 2026-04-23 07:56 | 12.98545 | 80.16634 | 48 ft | 10 kts | 67° |
| 2026-04-23 07:56 | 12.98572 | 80.16705 | 49 ft | 10 kts | 69° |
| 2026-04-23 07:57 | 12.98601 | 80.16769 | 49 ft | 7 kts | 32° |
| 2026-04-23 07:57 | 12.98652 | 80.16758 | 49 ft | 7 kts | 340° |
| 2026-04-23 07:57 | 12.98695 | 80.16741 | 48 ft | 6 kts | 339° |
| 2026-04-23 07:57 | 12.98747 | 80.16734 | 47 ft | 9 kts | 27° |
| 2026-04-23 07:58 | 12.98772 | 80.16779 | 48 ft | 11 kts | 70° |
| 2026-04-23 07:58 | 12.98801 | 80.16856 | 49 ft | 11 kts | 68° |
| 2026-04-23 07:58 | 12.98835 | 80.16946 | 49 ft | 15 kts | 69° |
| 2026-04-23 07:58 | 12.98877 | 80.17058 | 49 ft | 17 kts | 69° |
| 2026-04-23 07:59 | 12.98922 | 80.17178 | 50 ft | 17 kts | 67° |
| 2026-04-23 07:59 | 12.98976 | 80.17287 | 49 ft | 19 kts | 64° |
| 2026-04-23 07:59 | 12.99034 | 80.17436 | 48 ft | 26 kts | 69° |
| 2026-04-23 07:59 | 12.99093 | 80.17593 | 49 ft | 18 kts | 69° |
| 2026-04-23 08:00 | 12.99142 | 80.17692 | 50 ft | 13 kts | 33° |
| 2026-04-23 08:00 | 12.99216 | 80.17750 | 49 ft | 14 kts | 65° |
| 2026-04-23 08:00 | 12.99251 | 80.17838 | 50 ft | 13 kts | 69° |
| 2026-04-23 08:00 | 12.99288 | 80.17939 | 50 ft | 16 kts | 69° |
| 2026-04-23 08:01 | 12.99334 | 80.18057 | 50 ft | 18 kts | 68° |
| 2026-04-23 08:01 | 12.99368 | 80.18184 | 52 ft | 19 kts | 96° |
| 2026-04-23 08:01 | 12.99380 | 80.18269 | 52 ft | 9 kts | 56° |
| 2026-04-23 08:01 | 12.99421 | 80.18311 | 52 ft | 6 kts | 43° |
| 2026-04-23 08:02 | 12.99449 | 80.18338 | 52 ft | 5 kts | 42° |
| 2026-04-23 08:02 | 12.99488 | 80.18375 | 52 ft | 9 kts | 43° |
| 2026-04-23 08:02 | 12.99545 | 80.18427 | 52 ft | 12 kts | 37° |
| 2026-04-23 08:02 | 12.99591 | 80.18433 | 52 ft | 4 kts | 301° |
| 2026-04-23 08:03 | 12.99587 | 80.18410 | 52 ft | 4 kts | 245° |
| 2026-04-23 08:03 | 12.99582 | 80.18398 | 52 ft | 3 kts | 247° |
| 2026-04-23 08:03 | 12.99570 | 80.18366 | 52 ft | 11 kts | 248° |
| 2026-04-23 08:03 | 12.99462 | 80.18078 | 50 ft | 85 kts | 249° |
| 2026-04-23 08:04 | 12.99149 | 80.17247 | 47 ft | 159 kts | 249° |
| 2026-04-23 08:04 | 12.98732 | 80.16133 | 624 ft | 172 kts | 249° |
| 2026-04-23 08:04 | 12.98266 | 80.14930 | 1226 ft | 194 kts | 248° |
| 2026-04-23 08:04 | 12.97776 | 80.13673 | 2223 ft | 184 kts | 248° |
| 2026-04-23 08:05 | 12.97312 | 80.12485 | 2853 ft | 188 kts | 248° |
| 2026-04-23 08:05 | 12.96824 | 80.11206 | 3422 ft | 199 kts | 248° |
| 2026-04-23 08:05 | 12.96314 | 80.09828 | 3926 ft | 213 kts | 249° |
| 2026-04-23 08:05 | 12.95795 | 80.08383 | 4551 ft | 221 kts | 250° |
| 2026-04-23 08:06 | 12.95271 | 80.06905 | 5212 ft | 229 kts | 250° |
| 2026-04-23 08:06 | 12.94684 | 80.05296 | 5714 ft | 250 kts | 249° |
| 2026-04-23 08:06 | 12.94000 | 80.03552 | 5897 ft | 281 kts | 248° |
| 2026-04-23 08:06 | 12.93255 | 80.01682 | 6068 ft | 285 kts | 248° |
| 2026-04-23 08:07 | 12.92511 | 79.99745 | 6306 ft | 301 kts | 249° |
| 2026-04-23 08:07 | 12.91744 | 79.97754 | 7277 ft | 302 kts | 248° |
| 2026-04-23 08:07 | 12.90980 | 79.95795 | 8362 ft | 299 kts | 249° |
| 2026-04-23 08:07 | 12.90208 | 79.93815 | 9397 ft | 299 kts | 249° |
| 2026-04-23 08:08 | 12.89414 | 79.91877 | 10325 ft | 303 kts | 246° |
| 2026-04-23 08:08 | 12.88427 | 79.89906 | 10940 ft | 320 kts | 242° |
| 2026-04-23 08:08 | 12.87285 | 79.87877 | 11404 ft | 340 kts | 240° |
| 2026-04-23 08:08 | 12.86078 | 79.85751 | 12142 ft | 352 kts | 241° |
| 2026-04-23 08:09 | 12.84844 | 79.83538 | 12918 ft | 362 kts | 242° |
| 2026-04-23 08:09 | 12.83611 | 79.81297 | 13803 ft | 367 kts | 242° |
| 2026-04-23 08:09 | 12.82375 | 79.79002 | 14724 ft | 372 kts | 243° |
| 2026-04-23 08:09 | 12.81147 | 79.76690 | 15606 ft | 377 kts | 243° |
| 2026-04-23 08:10 | 12.79876 | 79.74312 | 16326 ft | 387 kts | 242° |
| 2026-04-23 08:10 | 12.78408 | 79.72011 | 17171 ft | 393 kts | 232° |
| 2026-04-23 08:10 | 12.73883 | 79.68877 | 18658 ft | 407 kts | 199° |
| 2026-04-23 08:11 | 12.71159 | 79.68044 | 19493 ft | 411 kts | 196° |
| 2026-04-23 08:11 | 12.68439 | 79.67217 | 20279 ft | 415 kts | 197° |
| 2026-04-23 08:11 | 12.65710 | 79.66259 | 21045 ft | 419 kts | 200° |
| 2026-04-23 08:11 | 12.62974 | 79.65218 | 21781 ft | 423 kts | 200° |
| 2026-04-23 08:12 | 12.60222 | 79.64169 | 22484 ft | 427 kts | 200° |
| 2026-04-23 08:12 | 12.57427 | 79.63106 | 23168 ft | 432 kts | 200° |
| 2026-04-23 08:12 | 12.54593 | 79.62020 | 23838 ft | 436 kts | 200° |
| 2026-04-23 08:12 | 12.51775 | 79.60934 | 24483 ft | 440 kts | 200° |
| 2026-04-23 08:13 | 12.48902 | 79.59823 | 25119 ft | 444 kts | 200° |
| 2026-04-23 08:13 | 12.46018 | 79.58706 | 25735 ft | 448 kts | 200° |
| 2026-04-23 08:13 | 12.43091 | 79.57571 | 26337 ft | 452 kts | 199° |
| 2026-04-23 08:13 | 12.40151 | 79.56431 | 26905 ft | 455 kts | 199° |
| 2026-04-23 08:14 | 12.37187 | 79.55281 | 27461 ft | 458 kts | 199° |
| 2026-04-23 08:14 | 12.34918 | 79.54400 | 27875 ft | 461 kts | 199° |
| 2026-04-23 08:14 | 12.31914 | 79.53233 | 28382 ft | 465 kts | 199° |
| 2026-04-23 08:14 | 12.28888 | 79.52058 | 28913 ft | 468 kts | 199° |
| 2026-04-23 08:15 | 12.25872 | 79.50885 | 29503 ft | 468 kts | 199° |
| 2026-04-23 08:15 | 12.22884 | 79.49730 | 30341 ft | 462 kts | 199° |
| 2026-04-23 08:15 | 12.19954 | 79.48592 | 30996 ft | 460 kts | 199° |
| 2026-04-23 08:15 | 12.16940 | 79.47420 | 31657 ft | 457 kts | 199° |
| 2026-04-23 08:16 | 12.13959 | 79.46262 | 31831 ft | 461 kts | 198° |
| 2026-04-23 08:16 | 12.10974 | 79.45104 | 31803 ft | 459 kts | 198° |
| 2026-04-23 08:16 | 12.05058 | 79.42808 | 31804 ft | 454 kts | 198° |
| 2026-04-23 08:17 | 11.99162 | 79.40522 | 31804 ft | 455 kts | 198° |
| 2026-04-23 08:17 | 11.93223 | 79.38219 | 31804 ft | 456 kts | 198° |
| 2026-04-23 08:18 | 11.87341 | 79.35941 | 31804 ft | 456 kts | 198° |
| 2026-04-23 08:18 | 11.81432 | 79.33654 | 31804 ft | 455 kts | 198° |
| 2026-04-23 08:19 | 11.75497 | 79.31357 | 31804 ft | 455 kts | 198° |
| 2026-04-23 08:19 | 11.69589 | 79.29071 | 31804 ft | 456 kts | 198° |
| 2026-04-23 08:20 | 11.63649 | 79.26775 | 31804 ft | 455 kts | 198° |
| 2026-04-23 08:20 | 11.57884 | 79.24174 | 31804 ft | 458 kts | 207° |
| 2026-04-23 08:21 | 11.52482 | 79.20755 | 31804 ft | 459 kts | 210° |
| 2026-04-23 08:21 | 11.47063 | 79.17342 | 31804 ft | 459 kts | 210° |
| 2026-04-23 08:22 | 11.41642 | 79.13902 | 31804 ft | 459 kts | 210° |
| 2026-04-23 08:22 | 11.36261 | 79.10470 | 31804 ft | 459 kts | 210° |
| 2026-04-23 08:23 | 11.30861 | 79.07021 | 31804 ft | 459 kts | 210° |
| 2026-04-23 08:23 | 11.25451 | 79.03563 | 31804 ft | 459 kts | 210° |
| 2026-04-23 08:24 | 11.20076 | 79.00127 | 31804 ft | 459 kts | 210° |
| 2026-04-23 08:24 | 11.14697 | 78.96688 | 31804 ft | 459 kts | 210° |
| 2026-04-23 08:25 | 11.09300 | 78.93239 | 31804 ft | 459 kts | 210° |
| 2026-04-23 08:25 | 11.03915 | 78.89798 | 31804 ft | 459 kts | 210° |
| 2026-04-23 08:26 | 10.98513 | 78.86348 | 31804 ft | 459 kts | 210° |
| 2026-04-23 08:26 | 10.93119 | 78.82903 | 31804 ft | 459 kts | 210° |
| 2026-04-23 08:27 | 10.87707 | 78.79450 | 31804 ft | 459 kts | 210° |
| 2026-04-23 08:27 | 10.82326 | 78.76018 | 31804 ft | 459 kts | 210° |
| 2026-04-23 08:28 | 10.76802 | 78.72811 | 31420 ft | 457 kts | 202° |
| 2026-04-23 08:28 | 10.73870 | 78.71652 | 30818 ft | 457 kts | 196° |
| 2026-04-23 08:28 | 10.70829 | 78.70665 | 30214 ft | 457 kts | 195° |
| 2026-04-23 08:29 | 10.67839 | 78.69682 | 29620 ft | 457 kts | 196° |
| 2026-04-23 08:29 | 10.64849 | 78.68669 | 29023 ft | 456 kts | 197° |
| 2026-04-23 08:29 | 10.61842 | 78.67655 | 28423 ft | 457 kts | 197° |
| 2026-04-23 08:29 | 10.58826 | 78.66652 | 27826 ft | 461 kts | 196° |
| 2026-04-23 08:30 | 10.55756 | 78.65636 | 27222 ft | 465 kts | 197° |
| 2026-04-23 08:30 | 10.52675 | 78.64619 | 26618 ft | 466 kts | 197° |
| 2026-04-23 08:30 | 10.49617 | 78.63609 | 26021 ft | 467 kts | 197° |
| 2026-04-23 08:30 | 10.46523 | 78.62590 | 25419 ft | 468 kts | 197° |
| 2026-04-23 08:31 | 10.43440 | 78.61576 | 24819 ft | 469 kts | 197° |
| 2026-04-23 08:31 | 10.40354 | 78.60562 | 24218 ft | 467 kts | 197° |
| 2026-04-23 08:31 | 10.37285 | 78.59554 | 23617 ft | 463 kts | 197° |
| 2026-04-23 08:31 | 10.34227 | 78.58550 | 23013 ft | 459 kts | 197° |
| 2026-04-23 08:32 | 10.31191 | 78.57555 | 22201 ft | 459 kts | 197° |
| 2026-04-23 08:32 | 10.28189 | 78.56571 | 21699 ft | 449 kts | 197° |
| 2026-04-23 08:32 | 10.25313 | 78.55627 | 21340 ft | 423 kts | 197° |
| 2026-04-23 08:32 | 10.22567 | 78.54728 | 20835 ft | 406 kts | 197° |
| 2026-04-23 08:33 | 10.19907 | 78.53857 | 19925 ft | 402 kts | 198° |
| 2026-04-23 08:33 | 10.17281 | 78.52998 | 19077 ft | 396 kts | 198° |
| 2026-04-23 08:33 | 10.14704 | 78.52154 | 18318 ft | 388 kts | 198° |
| 2026-04-23 08:33 | 10.12166 | 78.51324 | 17509 ft | 381 kts | 198° |
| 2026-04-23 08:34 | 10.09656 | 78.50503 | 16933 ft | 379 kts | 198° |
| 2026-04-23 08:34 | 10.07167 | 78.49689 | 16522 ft | 374 kts | 198° |
| 2026-04-23 08:34 | 10.04731 | 78.48892 | 16378 ft | 361 kts | 198° |
| 2026-04-23 08:34 | 10.02381 | 78.48123 | 16031 ft | 356 kts | 198° |
| 2026-04-23 08:35 | 10.00029 | 78.47370 | 15625 ft | 349 kts | 195° |
| 2026-04-23 08:35 | 9.97668 | 78.47111 | 15163 ft | 337 kts | 174° |
| 2026-04-23 08:35 | 9.95516 | 78.47770 | 14724 ft | 324 kts | 152° |
| 2026-04-23 08:35 | 9.93636 | 78.48952 | 14273 ft | 313 kts | 141° |
| 2026-04-23 08:36 | 9.92216 | 78.50579 | 13807 ft | 301 kts | 116° |
| 2026-04-23 08:36 | 9.91581 | 78.52566 | 13373 ft | 298 kts | 100° |
| 2026-04-23 08:36 | 9.91297 | 78.54642 | 12922 ft | 298 kts | 89° |
| 2026-04-23 08:36 | 9.91717 | 78.56678 | 12464 ft | 294 kts | 62° |
| 2026-04-23 08:37 | 9.92799 | 78.58405 | 12027 ft | 294 kts | 53° |
| 2026-04-23 08:37 | 9.94143 | 78.59949 | 11572 ft | 293 kts | 37° |
| 2026-04-23 08:37 | 9.95960 | 78.60827 | 11121 ft | 292 kts | 13° |
| 2026-04-23 08:37 | 9.97934 | 78.61260 | 10676 ft | 293 kts | 16° |
| 2026-04-23 08:38 | 9.99852 | 78.61980 | 10224 ft | 294 kts | 21° |
| 2026-04-23 08:38 | 10.01762 | 78.62701 | 9774 ft | 295 kts | 19° |
| 2026-04-23 08:38 | 10.03709 | 78.63361 | 9322 ft | 296 kts | 18° |
| 2026-04-23 08:38 | 10.05677 | 78.64020 | 8867 ft | 296 kts | 18° |
| 2026-04-23 08:39 | 10.07634 | 78.64674 | 8416 ft | 297 kts | 18° |
| 2026-04-23 08:39 | 10.09625 | 78.65185 | 7964 ft | 298 kts | 8° |
| 2026-04-23 08:39 | 10.11663 | 78.65033 | 7509 ft | 300 kts | 342° |
| 2026-04-23 08:39 | 10.13347 | 78.63872 | 7265 ft | 293 kts | 309° |
| 2026-04-23 08:40 | 10.14107 | 78.62030 | 7304 ft | 276 kts | 276° |
| 2026-04-23 08:40 | 10.13912 | 78.60165 | 7308 ft | 265 kts | 256° |
| 2026-04-23 08:40 | 10.13391 | 78.58365 | 7303 ft | 268 kts | 253° |
| 2026-04-23 08:40 | 10.12868 | 78.56537 | 7289 ft | 270 kts | 253° |
| 2026-04-23 08:41 | 10.12220 | 78.54736 | 7090 ft | 271 kts | 245° |
| 2026-04-23 08:41 | 10.11328 | 78.53089 | 6891 ft | 268 kts | 239° |
| 2026-04-23 08:41 | 10.10257 | 78.51527 | 6631 ft | 268 kts | 228° |
| 2026-04-23 08:41 | 10.08968 | 78.50166 | 6231 ft | 270 kts | 225° |
| 2026-04-23 08:42 | 10.07691 | 78.48795 | 5826 ft | 264 kts | 227° |
| 2026-04-23 08:42 | 10.06472 | 78.47456 | 5427 ft | 256 kts | 227° |
| 2026-04-23 08:42 | 10.05265 | 78.46132 | 5021 ft | 249 kts | 227° |
| 2026-04-23 08:42 | 10.04118 | 78.44869 | 4623 ft | 243 kts | 227° |
| 2026-04-23 08:43 | 10.02982 | 78.43618 | 4221 ft | 237 kts | 227° |
| 2026-04-23 08:43 | 10.01873 | 78.42396 | 3818 ft | 232 kts | 227° |
| 2026-04-23 08:43 | 10.00792 | 78.41205 | 3419 ft | 228 kts | 227° |
| 2026-04-23 08:43 | 9.99733 | 78.40037 | 3020 ft | 224 kts | 227° |
| 2026-04-23 08:44 | 9.98563 | 78.39025 | 2618 ft | 220 kts | 210° |
| 2026-04-23 08:44 | 9.97281 | 78.38210 | 2217 ft | 217 kts | 223° |
| 2026-04-23 08:44 | 9.96483 | 78.36934 | 1975 ft | 209 kts | 246° |
| 2026-04-23 08:44 | 9.95740 | 78.35664 | 1997 ft | 213 kts | 229° |
| 2026-04-23 08:45 | 9.94739 | 78.34550 | 1990 ft | 214 kts | 227° |
| 2026-04-23 08:45 | 9.93740 | 78.33439 | 1992 ft | 214 kts | 227° |
| 2026-04-23 08:45 | 9.92730 | 78.32322 | 1990 ft | 214 kts | 227° |
| 2026-04-23 08:45 | 9.91720 | 78.31208 | 1992 ft | 214 kts | 227° |
| 2026-04-23 08:46 | 9.90702 | 78.30087 | 1992 ft | 215 kts | 227° |
| 2026-04-23 08:46 | 9.89696 | 78.28979 | 1994 ft | 214 kts | 227° |
| 2026-04-23 08:46 | 9.88687 | 78.27868 | 1995 ft | 213 kts | 227° |
| 2026-04-23 08:46 | 9.87709 | 78.26789 | 2000 ft | 200 kts | 227° |
| 2026-04-23 08:47 | 9.86946 | 78.25705 | 1986 ft | 178 kts | 239° |
| 2026-04-23 08:47 | 9.86314 | 78.24673 | 1995 ft | 171 kts | 236° |
| 2026-04-23 08:47 | 9.85664 | 78.23660 | 1992 ft | 171 kts | 236° |
| 2026-04-23 08:47 | 9.85000 | 78.22640 | 1993 ft | 171 kts | 236° |
| 2026-04-23 08:48 | 9.84547 | 78.21536 | 1993 ft | 171 kts | 263° |
| 2026-04-23 08:48 | 9.84454 | 78.20345 | 1993 ft | 172 kts | 264° |
| 2026-04-23 08:48 | 9.84303 | 78.19130 | 1992 ft | 172 kts | 260° |
| 2026-04-23 08:48 | 9.84166 | 78.17937 | 1981 ft | 171 kts | 265° |
| 2026-04-23 08:49 | 9.84045 | 78.16749 | 1749 ft | 163 kts | 262° |
| 2026-04-23 08:49 | 9.83925 | 78.15630 | 1540 ft | 159 kts | 265° |
| 2026-04-23 08:49 | 9.83839 | 78.14529 | 1340 ft | 153 kts | 265° |
| 2026-04-23 08:49 | 9.83763 | 78.13480 | 1134 ft | 149 kts | 265° |
| 2026-04-23 08:50 | 9.83680 | 78.12450 | 944 ft | 146 kts | 265° |
| 2026-04-23 08:50 | 9.83593 | 78.11421 | 738 ft | 146 kts | 266° |
| 2026-04-23 08:50 | 9.83522 | 78.10390 | 531 ft | 144 kts | 266° |
| 2026-04-23 08:50 | 9.83458 | 78.09430 | 454 ft | 118 kts | 266° |
| 2026-04-23 08:51 | 9.83423 | 78.08863 | 463 ft | 47 kts | 266° |
| 2026-04-23 08:51 | 9.83410 | 78.08668 | 465 ft | 22 kts | 266° |
| 2026-04-23 08:51 | 9.83400 | 78.08514 | 465 ft | 20 kts | 266° |
| 2026-04-23 08:51 | 9.83393 | 78.08382 | 465 ft | 18 kts | 266° |
| 2026-04-23 08:52 | 9.83382 | 78.08250 | 464 ft | 17 kts | 261° |
| 2026-04-23 08:52 | 9.83343 | 78.08139 | 462 ft | 15 kts | 273° |
| 2026-04-23 08:52 | 9.83381 | 78.08122 | 462 ft | 7 kts | 70° |
| 2026-04-23 08:52 | 9.83383 | 78.08186 | 463 ft | 10 kts | 90° |
| 2026-04-23 08:53 | 9.83385 | 78.08282 | 464 ft | 16 kts | 88° |
| 2026-04-23 08:53 | 9.83395 | 78.08415 | 465 ft | 22 kts | 85° |
| 2026-04-23 08:53 | 9.83406 | 78.08592 | 465 ft | 27 kts | 87° |
| 2026-04-23 08:53 | 9.83418 | 78.08792 | 464 ft | 29 kts | 86° |
| 2026-04-23 08:54 | 9.83428 | 78.08952 | 461 ft | 11 kts | 86° |
| 2026-04-23 08:54 | 9.83437 | 78.09041 | 459 ft | 13 kts | 67° |
| 2026-04-23 08:54 | 9.83521 | 78.09081 | 457 ft | 11 kts | 15° |
| 2026-04-23 08:54 | 9.83596 | 78.09100 | 457 ft | 10 kts | 13° |
| 2026-04-23 08:55 | 9.83619 | 78.09058 | 458 ft | 7 kts | 262° |
| 2026-04-23 08:55 | 9.83615 | 78.09014 | 458 ft | 4 kts | 264° |
| 2026-04-23 08:55 | 9.83613 | 78.08987 | 459 ft | 5 kts | 271° |
| 2026-04-23 08:55 | 9.83650 | 78.08944 | 460 ft | 12 kts | 349° |
| 2026-04-23 08:56 | 9.83708 | 78.08942 | 460 ft | 5 kts | 357° |
| 2026-04-23 08:56 | 9.83741 | 78.08929 | 460 ft | 3 kts | 311° |
| 2026-04-23 08:56 | 9.83766 | 78.08916 | 460 ft | 3 kts | 352° |
| 2026-04-23 08:56 | 9.83778 | 78.08913 | 460 ft | 0 kts | 350° |
| 2026-04-23 08:57 | 9.83780 | 78.08913 | 461 ft | 0 kts | 350° |